sensor_id;sensor_type;location;lat;lon;timestamp;P1;durP1;ratioP1;P2;durP2;ratioP2
43042;SDS011;28667;50.758;6.096;2023-07-31T00:00:11;3.25;;;1.70;;
43042;SDS011;28667;50.758;6.096;2023-07-31T00:02:37;4.03;;;2.08;;
43042;SDS011;28667;50.758;6.096;2023-07-31T00:05:03;2.90;;;1.50;;
43042;SDS011;28667;50.758;6.096;2023-07-31T00:07:29;7.25;;;2.00;;
43042;SDS011;28667;50.758;6.096;2023-07-31T00:09:55;4.78;;;2.00;;
43042;SDS011;28667;50.758;6.096;2023-07-31T00:12:24;2.25;;;1.60;;
43042;SDS011;28667;50.758;6.096;2023-07-31T00:14:49;4.93;;;1.80;;
43042;SDS011;28667;50.758;6.096;2023-07-31T00:17:16;5.18;;;1.58;;
43042;SDS011;28667;50.758;6.096;2023-07-31T00:19:42;14.70;;;2.55;;
43042;SDS011;28667;50.758;6.096;2023-07-31T00:22:08;6.40;;;1.88;;
43042;SDS011;28667;50.758;6.096;2023-07-31T00:24:34;2.25;;;1.55;;
43042;SDS011;28667;50.758;6.096;2023-07-31T00:26:59;4.57;;;2.00;;
43042;SDS011;28667;50.758;6.096;2023-07-31T00:29:26;3.47;;;1.73;;
43042;SDS011;28667;50.758;6.096;2023-07-31T00:31:51;5.28;;;2.05;;
43042;SDS011;28667;50.758;6.096;2023-07-31T00:34:17;3.70;;;1.58;;
43042;SDS011;28667;50.758;6.096;2023-07-31T00:36:43;3.45;;;1.63;;
43042;SDS011;28667;50.758;6.096;2023-07-31T00:39:08;3.50;;;1.70;;
43042;SDS011;28667;50.758;6.096;2023-07-31T00:41:34;3.58;;;2.13;;
43042;SDS011;28667;50.758;6.096;2023-07-31T00:44:00;3.47;;;1.70;;
43042;SDS011;28667;50.758;6.096;2023-07-31T00:46:26;4.45;;;1.60;;
43042;SDS011;28667;50.758;6.096;2023-07-31T00:48:52;5.85;;;2.47;;
43042;SDS011;28667;50.758;6.096;2023-07-31T00:51:18;6.53;;;1.83;;
43042;SDS011;28667;50.758;6.096;2023-07-31T00:53:43;5.60;;;1.98;;
43042;SDS011;28667;50.758;6.096;2023-07-31T00:56:10;7.40;;;1.63;;
43042;SDS011;28667;50.758;6.096;2023-07-31T00:58:37;4.88;;;1.50;;
43042;SDS011;28667;50.758;6.096;2023-07-31T01:01:03;3.80;;;1.95;;
43042;SDS011;28667;50.758;6.096;2023-07-31T01:03:29;6.82;;;1.83;;
43042;SDS011;28667;50.758;6.096;2023-07-31T01:11:31;18.23;;;2.53;;
43042;SDS011;28667;50.758;6.096;2023-07-31T01:14:03;8.73;;;2.50;;
43042;SDS011;28667;50.758;6.096;2023-07-31T01:16:29;4.05;;;2.60;;
43042;SDS011;28667;50.758;6.096;2023-07-31T01:18:54;8.40;;;2.28;;
43042;SDS011;28667;50.758;6.096;2023-07-31T01:26:28;6.00;;;2.10;;
43042;SDS011;28667;50.758;6.096;2023-07-31T01:31:34;3.55;;;2.08;;
43042;SDS011;28667;50.758;6.096;2023-07-31T01:34:02;5.15;;;2.00;;
43042;SDS011;28667;50.758;6.096;2023-07-31T01:36:30;7.05;;;2.35;;
43042;SDS011;28667;50.758;6.096;2023-07-31T01:39:00;3.95;;;2.22;;
43042;SDS011;28667;50.758;6.096;2023-07-31T01:41:26;8.40;;;2.60;;
43042;SDS011;28667;50.758;6.096;2023-07-31T01:43:52;6.03;;;2.05;;
43042;SDS011;28667;50.758;6.096;2023-07-31T01:46:17;5.03;;;1.90;;
43042;SDS011;28667;50.758;6.096;2023-07-31T01:48:43;6.13;;;2.13;;
43042;SDS011;28667;50.758;6.096;2023-07-31T01:51:09;2.78;;;2.22;;
43042;SDS011;28667;50.758;6.096;2023-07-31T01:53:35;4.40;;;2.00;;
43042;SDS011;28667;50.758;6.096;2023-07-31T01:56:00;5.47;;;2.30;;
43042;SDS011;28667;50.758;6.096;2023-07-31T01:58:26;6.10;;;2.47;;
43042;SDS011;28667;50.758;6.096;2023-07-31T02:00:52;2.70;;;2.13;;
43042;SDS011;28667;50.758;6.096;2023-07-31T02:03:18;7.95;;;2.58;;
43042;SDS011;28667;50.758;6.096;2023-07-31T02:05:44;8.30;;;2.00;;
43042;SDS011;28667;50.758;6.096;2023-07-31T02:08:11;6.00;;;2.00;;
43042;SDS011;28667;50.758;6.096;2023-07-31T02:10:37;9.95;;;2.90;;
43042;SDS011;28667;50.758;6.096;2023-07-31T02:13:03;4.35;;;2.25;;
43042;SDS011;28667;50.758;6.096;2023-07-31T02:15:32;4.50;;;2.22;;
43042;SDS011;28667;50.758;6.096;2023-07-31T02:17:58;5.63;;;2.55;;
43042;SDS011;28667;50.758;6.096;2023-07-31T02:20:24;4.93;;;1.92;;
43042;SDS011;28667;50.758;6.096;2023-07-31T02:22:50;2.90;;;1.88;;
43042;SDS011;28667;50.758;6.096;2023-07-31T02:25:16;3.67;;;2.28;;
43042;SDS011;28667;50.758;6.096;2023-07-31T02:27:42;5.57;;;2.28;;
43042;SDS011;28667;50.758;6.096;2023-07-31T02:30:08;8.85;;;2.90;;
43042;SDS011;28667;50.758;6.096;2023-07-31T02:32:34;7.15;;;2.42;;
43042;SDS011;28667;50.758;6.096;2023-07-31T02:34:59;5.70;;;2.10;;
43042;SDS011;28667;50.758;6.096;2023-07-31T02:37:25;6.18;;;1.92;;
43042;SDS011;28667;50.758;6.096;2023-07-31T02:39:51;5.63;;;1.60;;
43042;SDS011;28667;50.758;6.096;2023-07-31T02:42:17;9.93;;;2.17;;
43042;SDS011;28667;50.758;6.096;2023-07-31T02:44:42;3.47;;;2.00;;
43042;SDS011;28667;50.758;6.096;2023-07-31T02:47:08;2.78;;;1.95;;
43042;SDS011;28667;50.758;6.096;2023-07-31T02:49:34;7.63;;;2.65;;
43042;SDS011;28667;50.758;6.096;2023-07-31T02:51:59;5.72;;;2.45;;
43042;SDS011;28667;50.758;6.096;2023-07-31T02:54:25;3.75;;;2.25;;
43042;SDS011;28667;50.758;6.096;2023-07-31T02:56:51;5.22;;;2.63;;
43042;SDS011;28667;50.758;6.096;2023-07-31T02:59:17;3.70;;;2.05;;
43042;SDS011;28667;50.758;6.096;2023-07-31T03:01:43;3.58;;;2.05;;
43042;SDS011;28667;50.758;6.096;2023-07-31T03:04:10;5.50;;;2.72;;
43042;SDS011;28667;50.758;6.096;2023-07-31T03:06:35;7.78;;;2.38;;
43042;SDS011;28667;50.758;6.096;2023-07-31T03:09:01;7.82;;;2.33;;
43042;SDS011;28667;50.758;6.096;2023-07-31T03:11:27;3.90;;;1.98;;
43042;SDS011;28667;50.758;6.096;2023-07-31T03:13:53;5.85;;;2.70;;
43042;SDS011;28667;50.758;6.096;2023-07-31T03:16:19;5.72;;;2.67;;
43042;SDS011;28667;50.758;6.096;2023-07-31T03:18:44;3.40;;;1.98;;
43042;SDS011;28667;50.758;6.096;2023-07-31T03:21:10;4.63;;;2.28;;
43042;SDS011;28667;50.758;6.096;2023-07-31T03:23:36;4.05;;;2.28;;
43042;SDS011;28667;50.758;6.096;2023-07-31T03:26:02;5.13;;;2.38;;
43042;SDS011;28667;50.758;6.096;2023-07-31T03:28:32;7.75;;;2.60;;
43042;SDS011;28667;50.758;6.096;2023-07-31T03:30:58;4.47;;;2.40;;
43042;SDS011;28667;50.758;6.096;2023-07-31T03:33:24;2.75;;;2.13;;
43042;SDS011;28667;50.758;6.096;2023-07-31T03:35:50;4.72;;;2.03;;
43042;SDS011;28667;50.758;6.096;2023-07-31T03:38:16;4.20;;;1.70;;
43042;SDS011;28667;50.758;6.096;2023-07-31T03:40:41;3.08;;;1.83;;
43042;SDS011;28667;50.758;6.096;2023-07-31T03:43:07;5.35;;;2.53;;
43042;SDS011;28667;50.758;6.096;2023-07-31T03:45:33;5.93;;;2.33;;
43042;SDS011;28667;50.758;6.096;2023-07-31T03:47:59;7.28;;;2.42;;
43042;SDS011;28667;50.758;6.096;2023-07-31T03:50:25;9.23;;;2.45;;
43042;SDS011;28667;50.758;6.096;2023-07-31T03:52:50;4.63;;;2.38;;
43042;SDS011;28667;50.758;6.096;2023-07-31T03:55:17;4.28;;;1.88;;
43042;SDS011;28667;50.758;6.096;2023-07-31T03:57:43;6.85;;;2.08;;
43042;SDS011;28667;50.758;6.096;2023-07-31T04:00:09;3.25;;;2.20;;
43042;SDS011;28667;50.758;6.096;2023-07-31T04:02:40;7.90;;;2.47;;
43042;SDS011;28667;50.758;6.096;2023-07-31T04:05:06;4.63;;;2.20;;
43042;SDS011;28667;50.758;6.096;2023-07-31T04:07:32;6.25;;;2.03;;
43042;SDS011;28667;50.758;6.096;2023-07-31T04:09:58;5.20;;;2.25;;
43042;SDS011;28667;50.758;6.096;2023-07-31T04:12:24;3.42;;;1.58;;
43042;SDS011;28667;50.758;6.096;2023-07-31T04:14:50;5.07;;;1.73;;
43042;SDS011;28667;50.758;6.096;2023-07-31T04:17:17;6.38;;;2.10;;
43042;SDS011;28667;50.758;6.096;2023-07-31T04:19:43;4.65;;;1.77;;
43042;SDS011;28667;50.758;6.096;2023-07-31T04:22:08;4.32;;;1.98;;
43042;SDS011;28667;50.758;6.096;2023-07-31T04:24:34;3.90;;;1.90;;
43042;SDS011;28667;50.758;6.096;2023-07-31T04:27:00;2.53;;;1.58;;
43042;SDS011;28667;50.758;6.096;2023-07-31T04:29:25;5.47;;;1.60;;
43042;SDS011;28667;50.758;6.096;2023-07-31T04:31:51;3.60;;;2.03;;
43042;SDS011;28667;50.758;6.096;2023-07-31T04:34:17;4.80;;;1.97;;
43042;SDS011;28667;50.758;6.096;2023-07-31T04:36:43;1.63;;;1.40;;
43042;SDS011;28667;50.758;6.096;2023-07-31T04:39:08;1.88;;;1.48;;
43042;SDS011;28667;50.758;6.096;2023-07-31T04:41:34;4.22;;;1.80;;
43042;SDS011;28667;50.758;6.096;2023-07-31T04:44:00;4.20;;;1.42;;
43042;SDS011;28667;50.758;6.096;2023-07-31T04:46:26;7.40;;;2.30;;
43042;SDS011;28667;50.758;6.096;2023-07-31T04:48:52;1.98;;;1.13;;
43042;SDS011;28667;50.758;6.096;2023-07-31T04:51:18;2.50;;;1.58;;
43042;SDS011;28667;50.758;6.096;2023-07-31T04:53:43;3.03;;;1.90;;
43042;SDS011;28667;50.758;6.096;2023-07-31T04:56:09;2.83;;;1.20;;
43042;SDS011;28667;50.758;6.096;2023-07-31T04:58:35;4.68;;;1.70;;
43042;SDS011;28667;50.758;6.096;2023-07-31T05:01:00;5.07;;;1.55;;
43042;SDS011;28667;50.758;6.096;2023-07-31T05:03:26;2.15;;;1.45;;
43042;SDS011;28667;50.758;6.096;2023-07-31T05:05:52;4.40;;;1.55;;
43042;SDS011;28667;50.758;6.096;2023-07-31T05:08:18;2.88;;;1.92;;
43042;SDS011;28667;50.758;6.096;2023-07-31T05:10:43;2.05;;;1.45;;
43042;SDS011;28667;50.758;6.096;2023-07-31T05:13:09;3.90;;;1.55;;
43042;SDS011;28667;50.758;6.096;2023-07-31T05:15:35;4.20;;;1.27;;
43042;SDS011;28667;50.758;6.096;2023-07-31T05:18:00;4.85;;;1.70;;
43042;SDS011;28667;50.758;6.096;2023-07-31T05:20:26;3.17;;;1.55;;
43042;SDS011;28667;50.758;6.096;2023-07-31T05:22:52;1.95;;;1.35;;
43042;SDS011;28667;50.758;6.096;2023-07-31T05:25:18;2.20;;;1.52;;
43042;SDS011;28667;50.758;6.096;2023-07-31T05:27:44;3.58;;;1.65;;
43042;SDS011;28667;50.758;6.096;2023-07-31T05:30:10;4.45;;;1.75;;
43042;SDS011;28667;50.758;6.096;2023-07-31T05:32:36;3.75;;;2.08;;
43042;SDS011;28667;50.758;6.096;2023-07-31T05:35:01;2.85;;;1.45;;
43042;SDS011;28667;50.758;6.096;2023-07-31T05:37:27;2.45;;;1.90;;
43042;SDS011;28667;50.758;6.096;2023-07-31T05:39:53;1.98;;;1.77;;
43042;SDS011;28667;50.758;6.096;2023-07-31T05:42:19;5.65;;;1.83;;
43042;SDS011;28667;50.758;6.096;2023-07-31T05:44:44;4.00;;;1.70;;
43042;SDS011;28667;50.758;6.096;2023-07-31T05:47:10;3.42;;;1.83;;
43042;SDS011;28667;50.758;6.096;2023-07-31T05:49:36;2.65;;;1.85;;
43042;SDS011;28667;50.758;6.096;2023-07-31T05:52:01;1.90;;;1.58;;
43042;SDS011;28667;50.758;6.096;2023-07-31T05:54:27;4.32;;;1.63;;
43042;SDS011;28667;50.758;6.096;2023-07-31T05:56:53;5.90;;;1.85;;
43042;SDS011;28667;50.758;6.096;2023-07-31T05:59:19;3.92;;;1.33;;
43042;SDS011;28667;50.758;6.096;2023-07-31T06:01:44;5.15;;;1.48;;
43042;SDS011;28667;50.758;6.096;2023-07-31T06:04:10;5.43;;;2.13;;
43042;SDS011;28667;50.758;6.096;2023-07-31T06:06:36;6.55;;;2.17;;
43042;SDS011;28667;50.758;6.096;2023-07-31T06:09:02;2.40;;;1.65;;
43042;SDS011;28667;50.758;6.096;2023-07-31T06:11:29;3.40;;;2.00;;
43042;SDS011;28667;50.758;6.096;2023-07-31T06:13:55;2.30;;;1.73;;
43042;SDS011;28667;50.758;6.096;2023-07-31T06:16:21;6.35;;;2.50;;
43042;SDS011;28667;50.758;6.096;2023-07-31T06:18:47;3.75;;;1.40;;
43042;SDS011;28667;50.758;6.096;2023-07-31T06:21:12;5.63;;;1.80;;
43042;SDS011;28667;50.758;6.096;2023-07-31T06:23:38;3.28;;;1.83;;
43042;SDS011;28667;50.758;6.096;2023-07-31T06:26:04;2.13;;;1.30;;
43042;SDS011;28667;50.758;6.096;2023-07-31T06:28:30;2.65;;;1.55;;
43042;SDS011;28667;50.758;6.096;2023-07-31T06:30:57;3.63;;;1.63;;
43042;SDS011;28667;50.758;6.096;2023-07-31T06:33:23;5.88;;;1.38;;
43042;SDS011;28667;50.758;6.096;2023-07-31T06:35:50;3.38;;;1.52;;
43042;SDS011;28667;50.758;6.096;2023-07-31T06:38:16;2.47;;;1.83;;
43042;SDS011;28667;50.758;6.096;2023-07-31T06:40:44;2.17;;;1.38;;
43042;SDS011;28667;50.758;6.096;2023-07-31T06:43:10;3.70;;;1.63;;
43042;SDS011;28667;50.758;6.096;2023-07-31T06:45:36;8.07;;;2.05;;
43042;SDS011;28667;50.758;6.096;2023-07-31T06:48:03;2.88;;;1.35;;
43042;SDS011;28667;50.758;6.096;2023-07-31T06:50:29;2.75;;;1.52;;
43042;SDS011;28667;50.758;6.096;2023-07-31T06:52:56;4.65;;;1.52;;
43042;SDS011;28667;50.758;6.096;2023-07-31T06:55:22;1.88;;;1.45;;
43042;SDS011;28667;50.758;6.096;2023-07-31T06:57:49;5.22;;;1.45;;
43042;SDS011;28667;50.758;6.096;2023-07-31T07:00:16;3.65;;;1.83;;
43042;SDS011;28667;50.758;6.096;2023-07-31T07:02:42;3.72;;;1.30;;
43042;SDS011;28667;50.758;6.096;2023-07-31T07:05:08;2.78;;;1.70;;
43042;SDS011;28667;50.758;6.096;2023-07-31T07:07:35;5.53;;;1.60;;
43042;SDS011;28667;50.758;6.096;2023-07-31T07:10:00;1.65;;;1.50;;
43042;SDS011;28667;50.758;6.096;2023-07-31T07:12:29;6.15;;;1.42;;
43042;SDS011;28667;50.758;6.096;2023-07-31T07:14:56;3.15;;;1.85;;
43042;SDS011;28667;50.758;6.096;2023-07-31T07:17:25;3.05;;;1.98;;
43042;SDS011;28667;50.758;6.096;2023-07-31T07:19:52;2.05;;;1.25;;
43042;SDS011;28667;50.758;6.096;2023-07-31T07:22:18;4.95;;;1.73;;
43042;SDS011;28667;50.758;6.096;2023-07-31T07:24:44;4.30;;;1.80;;
43042;SDS011;28667;50.758;6.096;2023-07-31T07:27:10;2.03;;;1.40;;
43042;SDS011;28667;50.758;6.096;2023-07-31T07:29:35;4.00;;;1.52;;
43042;SDS011;28667;50.758;6.096;2023-07-31T07:32:02;5.72;;;2.47;;
43042;SDS011;28667;50.758;6.096;2023-07-31T07:34:28;2.30;;;1.50;;
43042;SDS011;28667;50.758;6.096;2023-07-31T07:36:54;2.60;;;1.40;;
43042;SDS011;28667;50.758;6.096;2023-07-31T07:39:20;4.30;;;1.77;;
43042;SDS011;28667;50.758;6.096;2023-07-31T07:41:46;1.92;;;1.40;;
43042;SDS011;28667;50.758;6.096;2023-07-31T07:44:13;3.35;;;1.55;;
43042;SDS011;28667;50.758;6.096;2023-07-31T07:46:39;2.80;;;1.40;;
43042;SDS011;28667;50.758;6.096;2023-07-31T07:49:05;4.28;;;1.25;;
43042;SDS011;28667;50.758;6.096;2023-07-31T07:51:30;2.92;;;1.30;;
43042;SDS011;28667;50.758;6.096;2023-07-31T07:54:00;2.75;;;1.42;;
43042;SDS011;28667;50.758;6.096;2023-07-31T07:56:26;1.40;;;1.13;;
43042;SDS011;28667;50.758;6.096;2023-07-31T07:58:52;2.38;;;1.20;;
43042;SDS011;28667;50.758;6.096;2023-07-31T08:01:18;2.50;;;1.30;;
43042;SDS011;28667;50.758;6.096;2023-07-31T08:03:44;4.45;;;1.23;;
43042;SDS011;28667;50.758;6.096;2023-07-31T08:06:10;1.73;;;1.13;;
43042;SDS011;28667;50.758;6.096;2023-07-31T08:08:36;4.35;;;1.40;;
43042;SDS011;28667;50.758;6.096;2023-07-31T08:11:02;3.55;;;1.15;;
43042;SDS011;28667;50.758;6.096;2023-07-31T08:13:28;6.20;;;1.52;;
43042;SDS011;28667;50.758;6.096;2023-07-31T08:15:54;2.38;;;1.30;;
43042;SDS011;28667;50.758;6.096;2023-07-31T08:18:20;1.88;;;1.05;;
43042;SDS011;28667;50.758;6.096;2023-07-31T08:20:46;2.45;;;1.00;;
43042;SDS011;28667;50.758;6.096;2023-07-31T08:23:11;2.63;;;1.23;;
43042;SDS011;28667;50.758;6.096;2023-07-31T08:25:38;3.08;;;1.40;;
43042;SDS011;28667;50.758;6.096;2023-07-31T08:28:04;6.15;;;1.70;;
43042;SDS011;28667;50.758;6.096;2023-07-31T08:30:30;6.35;;;1.88;;
43042;SDS011;28667;50.758;6.096;2023-07-31T08:32:57;2.45;;;1.23;;
43042;SDS011;28667;50.758;6.096;2023-07-31T08:35:23;2.40;;;1.55;;
43042;SDS011;28667;50.758;6.096;2023-07-31T08:37:49;3.15;;;1.42;;
43042;SDS011;28667;50.758;6.096;2023-07-31T08:40:15;2.95;;;1.60;;
43042;SDS011;28667;50.758;6.096;2023-07-31T08:42:44;2.67;;;1.98;;
43042;SDS011;28667;50.758;6.096;2023-07-31T08:45:13;3.58;;;1.33;;
43042;SDS011;28667;50.758;6.096;2023-07-31T08:47:41;1.95;;;1.23;;
43042;SDS011;28667;50.758;6.096;2023-07-31T08:50:10;6.25;;;1.45;;
43042;SDS011;28667;50.758;6.096;2023-07-31T08:52:37;3.50;;;1.30;;
43042;SDS011;28667;50.758;6.096;2023-07-31T08:55:04;3.72;;;1.40;;
43042;SDS011;28667;50.758;6.096;2023-07-31T08:57:30;4.32;;;1.42;;
43042;SDS011;28667;50.758;6.096;2023-07-31T08:59:59;2.67;;;1.40;;
43042;SDS011;28667;50.758;6.096;2023-07-31T09:02:25;3.42;;;1.42;;
43042;SDS011;28667;50.758;6.096;2023-07-31T09:05:01;3.45;;;2.00;;
43042;SDS011;28667;50.758;6.096;2023-07-31T09:07:28;2.28;;;0.95;;
43042;SDS011;28667;50.758;6.096;2023-07-31T09:09:56;5.78;;;1.48;;
43042;SDS011;28667;50.758;6.096;2023-07-31T09:12:22;2.55;;;1.33;;
43042;SDS011;28667;50.758;6.096;2023-07-31T09:14:49;4.30;;;1.63;;
43042;SDS011;28667;50.758;6.096;2023-07-31T09:17:15;4.95;;;1.02;;
43042;SDS011;28667;50.758;6.096;2023-07-31T09:19:43;2.92;;;1.00;;
43042;SDS011;28667;50.758;6.096;2023-07-31T09:22:09;2.80;;;1.05;;
43042;SDS011;28667;50.758;6.096;2023-07-31T09:24:34;2.08;;;1.30;;
43042;SDS011;28667;50.758;6.096;2023-07-31T09:27:01;2.83;;;1.30;;
43042;SDS011;28667;50.758;6.096;2023-07-31T09:29:27;1.80;;;1.05;;
43042;SDS011;28667;50.758;6.096;2023-07-31T09:31:54;2.58;;;0.98;;
43042;SDS011;28667;50.758;6.096;2023-07-31T09:34:27;3.45;;;1.20;;
43042;SDS011;28667;50.758;6.096;2023-07-31T09:39:23;3.25;;;1.35;;
43042;SDS011;28667;50.758;6.096;2023-07-31T09:41:54;4.95;;;1.38;;
43042;SDS011;28667;50.758;6.096;2023-07-31T09:44:21;3.13;;;1.13;;
43042;SDS011;28667;50.758;6.096;2023-07-31T09:46:47;4.20;;;1.30;;
43042;SDS011;28667;50.758;6.096;2023-07-31T09:49:14;1.63;;;1.05;;
43042;SDS011;28667;50.758;6.096;2023-07-31T09:51:41;2.20;;;1.45;;
43042;SDS011;28667;50.758;6.096;2023-07-31T09:56:41;1.67;;;1.33;;
43042;SDS011;28667;50.758;6.096;2023-07-31T09:59:10;1.85;;;1.13;;
43042;SDS011;28667;50.758;6.096;2023-07-31T10:01:37;3.08;;;1.63;;
43042;SDS011;28667;50.758;6.096;2023-07-31T10:04:04;1.00;;;0.90;;
43042;SDS011;28667;50.758;6.096;2023-07-31T10:06:32;1.10;;;0.85;;
43042;SDS011;28667;50.758;6.096;2023-07-31T10:09:03;2.20;;;1.35;;
43042;SDS011;28667;50.758;6.096;2023-07-31T10:12:15;1.85;;;1.20;;
43042;SDS011;28667;50.758;6.096;2023-07-31T10:14:25;1.63;;;1.00;;
43042;SDS011;28667;50.758;6.096;2023-07-31T10:16:52;1.45;;;0.77;;
43042;SDS011;28667;50.758;6.096;2023-07-31T10:19:18;2.90;;;1.08;;
43042;SDS011;28667;50.758;6.096;2023-07-31T10:21:45;1.75;;;1.00;;
43042;SDS011;28667;50.758;6.096;2023-07-31T10:24:13;1.02;;;0.80;;
43042;SDS011;28667;50.758;6.096;2023-07-31T10:26:40;0.95;;;0.90;;
43042;SDS011;28667;50.758;6.096;2023-07-31T10:29:08;1.52;;;1.23;;
43042;SDS011;28667;50.758;6.096;2023-07-31T10:31:34;2.90;;;1.17;;
43042;SDS011;28667;50.758;6.096;2023-07-31T10:34:00;1.08;;;0.88;;
43042;SDS011;28667;50.758;6.096;2023-07-31T10:36:28;1.15;;;0.85;;
43042;SDS011;28667;50.758;6.096;2023-07-31T10:38:55;1.50;;;0.70;;
43042;SDS011;28667;50.758;6.096;2023-07-31T10:41:30;1.67;;;0.75;;
43042;SDS011;28667;50.758;6.096;2023-07-31T10:44:00;2.65;;;0.68;;
43042;SDS011;28667;50.758;6.096;2023-07-31T10:46:27;0.52;;;0.52;;
43042;SDS011;28667;50.758;6.096;2023-07-31T10:48:57;0.55;;;0.50;;
43042;SDS011;28667;50.758;6.096;2023-07-31T10:51:28;1.85;;;0.80;;
43042;SDS011;28667;50.758;6.096;2023-07-31T10:54:12;2.25;;;0.90;;
43042;SDS011;28667;50.758;6.096;2023-07-31T10:56:40;1.20;;;0.65;;
43042;SDS011;28667;50.758;6.096;2023-07-31T10:59:09;0.82;;;0.68;;
43042;SDS011;28667;50.758;6.096;2023-07-31T11:01:50;1.30;;;0.80;;
43042;SDS011;28667;50.758;6.096;2023-07-31T11:04:24;0.70;;;0.50;;
43042;SDS011;28667;50.758;6.096;2023-07-31T11:06:57;0.95;;;0.77;;
43042;SDS011;28667;50.758;6.096;2023-07-31T11:09:25;1.38;;;1.08;;
43042;SDS011;28667;50.758;6.096;2023-07-31T11:11:54;1.10;;;0.73;;
43042;SDS011;28667;50.758;6.096;2023-07-31T11:14:21;1.77;;;0.90;;
43042;SDS011;28667;50.758;6.096;2023-07-31T11:16:49;1.08;;;0.80;;
43042;SDS011;28667;50.758;6.096;2023-07-31T11:19:21;0.65;;;0.60;;
43042;SDS011;28667;50.758;6.096;2023-07-31T11:21:48;1.83;;;1.20;;
43042;SDS011;28667;50.758;6.096;2023-07-31T11:24:14;1.00;;;0.90;;
43042;SDS011;28667;50.758;6.096;2023-07-31T11:26:47;4.22;;;1.23;;
43042;SDS011;28667;50.758;6.096;2023-07-31T11:29:17;2.22;;;1.20;;
43042;SDS011;28667;50.758;6.096;2023-07-31T11:31:44;1.48;;;1.10;;
43042;SDS011;28667;50.758;6.096;2023-07-31T11:34:10;3.33;;;1.42;;
43042;SDS011;28667;50.758;6.096;2023-07-31T11:36:36;2.38;;;1.17;;
43042;SDS011;28667;50.758;6.096;2023-07-31T11:39:05;1.10;;;0.77;;
43042;SDS011;28667;50.758;6.096;2023-07-31T11:41:34;1.90;;;0.80;;
43042;SDS011;28667;50.758;6.096;2023-07-31T11:44:00;1.13;;;0.95;;
43042;SDS011;28667;50.758;6.096;2023-07-31T11:46:29;2.45;;;1.15;;
43042;SDS011;28667;50.758;6.096;2023-07-31T11:48:59;4.40;;;1.10;;
43042;SDS011;28667;50.758;6.096;2023-07-31T11:51:25;1.58;;;1.15;;
43042;SDS011;28667;50.758;6.096;2023-07-31T11:53:53;1.83;;;1.00;;
43042;SDS011;28667;50.758;6.096;2023-07-31T11:56:23;2.58;;;1.25;;
43042;SDS011;28667;50.758;6.096;2023-07-31T11:58:50;1.70;;;1.05;;
43042;SDS011;28667;50.758;6.096;2023-07-31T12:01:24;1.20;;;1.10;;
43042;SDS011;28667;50.758;6.096;2023-07-31T12:03:52;2.20;;;1.25;;
43042;SDS011;28667;50.758;6.096;2023-07-31T12:06:19;3.22;;;1.15;;
43042;SDS011;28667;50.758;6.096;2023-07-31T12:08:48;1.27;;;1.08;;
43042;SDS011;28667;50.758;6.096;2023-07-31T12:11:14;2.40;;;1.30;;
43042;SDS011;28667;50.758;6.096;2023-07-31T12:13:40;2.83;;;1.48;;
43042;SDS011;28667;50.758;6.096;2023-07-31T12:16:05;2.78;;;1.35;;
43042;SDS011;28667;50.758;6.096;2023-07-31T12:18:35;2.75;;;1.33;;
43042;SDS011;28667;50.758;6.096;2023-07-31T12:21:04;3.80;;;1.73;;
43042;SDS011;28667;50.758;6.096;2023-07-31T12:23:32;4.28;;;1.23;;
43042;SDS011;28667;50.758;6.096;2023-07-31T12:28:43;1.90;;;1.17;;
43042;SDS011;28667;50.758;6.096;2023-07-31T12:31:09;2.38;;;1.45;;
43042;SDS011;28667;50.758;6.096;2023-07-31T12:33:37;3.10;;;1.33;;
43042;SDS011;28667;50.758;6.096;2023-07-31T12:36:04;1.83;;;1.17;;
43042;SDS011;28667;50.758;6.096;2023-07-31T12:38:34;1.67;;;1.05;;
43042;SDS011;28667;50.758;6.096;2023-07-31T12:41:00;3.00;;;1.17;;
43042;SDS011;28667;50.758;6.096;2023-07-31T12:43:26;2.78;;;1.38;;
43042;SDS011;28667;50.758;6.096;2023-07-31T12:45:53;1.23;;;1.13;;
43042;SDS011;28667;50.758;6.096;2023-07-31T12:48:20;2.45;;;1.17;;
43042;SDS011;28667;50.758;6.096;2023-07-31T12:50:46;3.53;;;1.27;;
43042;SDS011;28667;50.758;6.096;2023-07-31T12:53:11;2.10;;;1.23;;
43042;SDS011;28667;50.758;6.096;2023-07-31T12:55:37;1.35;;;1.23;;
43042;SDS011;28667;50.758;6.096;2023-07-31T12:58:03;1.33;;;1.08;;
43042;SDS011;28667;50.758;6.096;2023-07-31T13:00:29;1.38;;;0.93;;
43042;SDS011;28667;50.758;6.096;2023-07-31T13:02:55;1.35;;;1.00;;
43042;SDS011;28667;50.758;6.096;2023-07-31T13:05:21;3.13;;;1.05;;
43042;SDS011;28667;50.758;6.096;2023-07-31T13:07:47;1.73;;;0.93;;
43042;SDS011;28667;50.758;6.096;2023-07-31T13:10:13;2.95;;;1.10;;
43042;SDS011;28667;50.758;6.096;2023-07-31T13:12:39;1.52;;;1.00;;
43042;SDS011;28667;50.758;6.096;2023-07-31T13:15:05;3.10;;;1.20;;
43042;SDS011;28667;50.758;6.096;2023-07-31T13:17:32;1.50;;;1.35;;
43042;SDS011;28667;50.758;6.096;2023-07-31T13:19:58;2.15;;;1.08;;
43042;SDS011;28667;50.758;6.096;2023-07-31T13:22:23;2.42;;;1.10;;
43042;SDS011;28667;50.758;6.096;2023-07-31T13:24:49;1.77;;;1.20;;
43042;SDS011;28667;50.758;6.096;2023-07-31T13:27:15;3.35;;;1.50;;
43042;SDS011;28667;50.758;6.096;2023-07-31T13:29:46;2.65;;;1.17;;
43042;SDS011;28667;50.758;6.096;2023-07-31T13:32:13;1.88;;;1.42;;
43042;SDS011;28667;50.758;6.096;2023-07-31T13:34:38;4.38;;;1.52;;
43042;SDS011;28667;50.758;6.096;2023-07-31T13:37:04;1.95;;;1.30;;
43042;SDS011;28667;50.758;6.096;2023-07-31T13:39:31;4.25;;;1.83;;
43042;SDS011;28667;50.758;6.096;2023-07-31T13:41:58;2.15;;;1.33;;
43042;SDS011;28667;50.758;6.096;2023-07-31T13:44:24;3.22;;;1.27;;
43042;SDS011;28667;50.758;6.096;2023-07-31T13:46:50;1.58;;;1.30;;
43042;SDS011;28667;50.758;6.096;2023-07-31T13:49:16;2.35;;;1.30;;
43042;SDS011;28667;50.758;6.096;2023-07-31T13:51:41;2.28;;;1.40;;
43042;SDS011;28667;50.758;6.096;2023-07-31T13:54:07;4.05;;;1.40;;
43042;SDS011;28667;50.758;6.096;2023-07-31T13:56:33;2.05;;;1.50;;
43042;SDS011;28667;50.758;6.096;2023-07-31T13:58:59;2.92;;;1.55;;
43042;SDS011;28667;50.758;6.096;2023-07-31T14:01:26;1.98;;;1.50;;
43042;SDS011;28667;50.758;6.096;2023-07-31T14:03:52;1.98;;;1.52;;
43042;SDS011;28667;50.758;6.096;2023-07-31T14:06:17;2.42;;;1.02;;
43042;SDS011;28667;50.758;6.096;2023-07-31T14:08:44;4.30;;;1.83;;
43042;SDS011;28667;50.758;6.096;2023-07-31T14:11:09;1.50;;;1.17;;
43042;SDS011;28667;50.758;6.096;2023-07-31T14:13:35;2.45;;;1.48;;
43042;SDS011;28667;50.758;6.096;2023-07-31T14:16:01;1.98;;;1.52;;
43042;SDS011;28667;50.758;6.096;2023-07-31T14:18:27;3.08;;;1.70;;
43042;SDS011;28667;50.758;6.096;2023-07-31T14:20:52;3.20;;;1.50;;
43042;SDS011;28667;50.758;6.096;2023-07-31T14:23:18;3.67;;;1.60;;
43042;SDS011;28667;50.758;6.096;2023-07-31T14:25:45;4.25;;;1.60;;
43042;SDS011;28667;50.758;6.096;2023-07-31T14:28:11;3.90;;;1.80;;
43042;SDS011;28667;50.758;6.096;2023-07-31T14:30:37;2.70;;;1.45;;
43042;SDS011;28667;50.758;6.096;2023-07-31T14:33:03;3.97;;;1.35;;
43042;SDS011;28667;50.758;6.096;2023-07-31T14:35:28;2.50;;;1.55;;
43042;SDS011;28667;50.758;6.096;2023-07-31T14:37:54;1.80;;;1.60;;
43042;SDS011;28667;50.758;6.096;2023-07-31T14:40:20;2.53;;;1.70;;
43042;SDS011;28667;50.758;6.096;2023-07-31T14:42:46;3.17;;;1.73;;
43042;SDS011;28667;50.758;6.096;2023-07-31T14:45:11;3.08;;;2.00;;
43042;SDS011;28667;50.758;6.096;2023-07-31T14:47:37;5.13;;;1.65;;
43042;SDS011;28667;50.758;6.096;2023-07-31T14:50:03;3.45;;;2.10;;
43042;SDS011;28667;50.758;6.096;2023-07-31T14:52:29;3.05;;;1.67;;
43042;SDS011;28667;50.758;6.096;2023-07-31T14:54:55;5.68;;;2.15;;
43042;SDS011;28667;50.758;6.096;2023-07-31T14:57:21;3.40;;;2.10;;
43042;SDS011;28667;50.758;6.096;2023-07-31T14:59:46;2.58;;;1.63;;
43042;SDS011;28667;50.758;6.096;2023-07-31T15:02:12;3.22;;;2.20;;
43042;SDS011;28667;50.758;6.096;2023-07-31T15:04:38;3.95;;;1.90;;